sensor_id;sensor_type;location;lat;lon;timestamp;P1;durP1;ratioP1;P2;durP2;ratioP2
10260;SDS011;5175;42.606;23.388;2022-08-06T00:02:14;4.80;;;4.35;;
10260;SDS011;5175;42.606;23.388;2022-08-06T00:04:44;4.63;;;4.22;;
10260;SDS011;5175;42.606;23.388;2022-08-06T00:07:11;5.15;;;4.68;;
10260;SDS011;5175;42.606;23.388;2022-08-06T00:09:38;4.25;;;3.95;;
10260;SDS011;5175;42.606;23.388;2022-08-06T00:12:05;5.10;;;4.70;;
10260;SDS011;5175;42.606;23.388;2022-08-06T00:14:33;5.50;;;5.00;;
10260;SDS011;5175;42.606;23.388;2022-08-06T00:16:59;5.63;;;5.13;;
10260;SDS011;5175;42.606;23.388;2022-08-06T00:19:26;5.40;;;4.90;;
10260;SDS011;5175;42.606;23.388;2022-08-06T00:21:54;5.18;;;4.78;;
10260;SDS011;5175;42.606;23.388;2022-08-06T00:24:21;5.05;;;4.65;;
10260;SDS011;5175;42.606;23.388;2022-08-06T00:26:48;5.47;;;4.68;;
10260;SDS011;5175;42.606;23.388;2022-08-06T00:29:15;8.38;;;4.78;;
10260;SDS011;5175;42.606;23.388;2022-08-06T00:31:42;6.78;;;4.70;;
10260;SDS011;5175;42.606;23.388;2022-08-06T00:34:08;7.50;;;4.95;;
10260;SDS011;5175;42.606;23.388;2022-08-06T00:36:35;5.15;;;4.60;;
10260;SDS011;5175;42.606;23.388;2022-08-06T00:39:05;5.95;;;4.47;;
10260;SDS011;5175;42.606;23.388;2022-08-06T00:41:33;4.90;;;4.50;;
10260;SDS011;5175;42.606;23.388;2022-08-06T00:44:00;5.07;;;4.68;;
10260;SDS011;5175;42.606;23.388;2022-08-06T00:46:27;4.85;;;4.43;;
10260;SDS011;5175;42.606;23.388;2022-08-06T00:48:54;5.07;;;4.68;;
10260;SDS011;5175;42.606;23.388;2022-08-06T00:51:21;4.88;;;4.47;;
10260;SDS011;5175;42.606;23.388;2022-08-06T00:53:49;5.25;;;4.82;;
10260;SDS011;5175;42.606;23.388;2022-08-06T00:56:17;4.88;;;4.47;;
10260;SDS011;5175;42.606;23.388;2022-08-06T00:58:44;5.60;;;5.00;;
10260;SDS011;5175;42.606;23.388;2022-08-06T01:01:11;5.90;;;4.70;;
10260;SDS011;5175;42.606;23.388;2022-08-06T01:03:38;5.50;;;5.05;;
10260;SDS011;5175;42.606;23.388;2022-08-06T01:06:05;5.07;;;4.65;;
10260;SDS011;5175;42.606;23.388;2022-08-06T01:08:31;5.38;;;4.97;;
10260;SDS011;5175;42.606;23.388;2022-08-06T01:10:58;5.47;;;5.03;;
10260;SDS011;5175;42.606;23.388;2022-08-06T01:13:26;9.30;;;5.60;;
10260;SDS011;5175;42.606;23.388;2022-08-06T01:15:55;5.25;;;4.85;;
10260;SDS011;5175;42.606;23.388;2022-08-06T01:18:28;5.07;;;4.68;;
10260;SDS011;5175;42.606;23.388;2022-08-06T01:21:05;4.88;;;4.45;;
10260;SDS011;5175;42.606;23.388;2022-08-06T01:23:50;5.20;;;4.80;;
10260;SDS011;5175;42.606;23.388;2022-08-06T01:26:36;5.38;;;4.90;;
10260;SDS011;5175;42.606;23.388;2022-08-06T01:29:13;4.95;;;4.60;;
10260;SDS011;5175;42.606;23.388;2022-08-06T01:31:45;5.55;;;5.05;;
10260;SDS011;5175;42.606;23.388;2022-08-06T01:34:16;4.82;;;4.40;;
10260;SDS011;5175;42.606;23.388;2022-08-06T01:36:48;6.10;;;4.88;;
10260;SDS011;5175;42.606;23.388;2022-08-06T01:39:18;5.00;;;4.60;;
10260;SDS011;5175;42.606;23.388;2022-08-06T01:41:48;5.10;;;4.70;;
10260;SDS011;5175;42.606;23.388;2022-08-06T01:44:19;6.10;;;5.43;;
10260;SDS011;5175;42.606;23.388;2022-08-06T01:46:49;5.63;;;5.10;;
10260;SDS011;5175;42.606;23.388;2022-08-06T01:49:22;5.68;;;5.18;;
10260;SDS011;5175;42.606;23.388;2022-08-06T01:51:52;6.20;;;5.68;;
10260;SDS011;5175;42.606;23.388;2022-08-06T01:54:22;5.63;;;5.10;;
10260;SDS011;5175;42.606;23.388;2022-08-06T01:56:51;5.45;;;4.93;;
10260;SDS011;5175;42.606;23.388;2022-08-06T01:59:22;6.13;;;5.57;;
10260;SDS011;5175;42.606;23.388;2022-08-06T02:01:52;5.38;;;4.88;;
10260;SDS011;5175;42.606;23.388;2022-08-06T02:04:22;5.55;;;5.15;;
10260;SDS011;5175;42.606;23.388;2022-08-06T02:06:52;5.20;;;4.70;;
10260;SDS011;5175;42.606;23.388;2022-08-06T02:09:21;5.60;;;5.20;;
10260;SDS011;5175;42.606;23.388;2022-08-06T02:11:50;6.07;;;5.30;;
10260;SDS011;5175;42.606;23.388;2022-08-06T02:14:22;5.13;;;4.60;;
10260;SDS011;5175;42.606;23.388;2022-08-06T02:16:51;5.60;;;5.20;;
10260;SDS011;5175;42.606;23.388;2022-08-06T02:19:24;5.25;;;4.85;;
10260;SDS011;5175;42.606;23.388;2022-08-06T02:21:54;5.80;;;5.30;;
10260;SDS011;5175;42.606;23.388;2022-08-06T02:24:25;5.35;;;4.95;;
10260;SDS011;5175;42.606;23.388;2022-08-06T02:26:55;5.95;;;5.35;;
10260;SDS011;5175;42.606;23.388;2022-08-06T02:29:26;5.40;;;5.00;;
10260;SDS011;5175;42.606;23.388;2022-08-06T02:31:54;5.57;;;5.13;;
10260;SDS011;5175;42.606;23.388;2022-08-06T02:34:21;5.55;;;5.05;;
10260;SDS011;5175;42.606;23.388;2022-08-06T02:36:49;4.97;;;4.57;;
10260;SDS011;5175;42.606;23.388;2022-08-06T02:39:23;6.05;;;5.53;;
10260;SDS011;5175;42.606;23.388;2022-08-06T02:41:55;5.30;;;4.90;;
10260;SDS011;5175;42.606;23.388;2022-08-06T02:44:34;5.85;;;5.32;;
10260;SDS011;5175;42.606;23.388;2022-08-06T02:47:04;5.72;;;5.32;;
10260;SDS011;5175;42.606;23.388;2022-08-06T02:49:36;5.68;;;5.15;;
10260;SDS011;5175;42.606;23.388;2022-08-06T02:52:08;6.50;;;5.90;;
10260;SDS011;5175;42.606;23.388;2022-08-06T02:54:41;6.30;;;5.80;;
10260;SDS011;5175;42.606;23.388;2022-08-06T02:57:14;6.35;;;5.85;;
10260;SDS011;5175;42.606;23.388;2022-08-06T02:59:49;6.32;;;5.72;;
10260;SDS011;5175;42.606;23.388;2022-08-06T03:02:20;6.25;;;5.53;;
10260;SDS011;5175;42.606;23.388;2022-08-06T03:04:49;5.88;;;5.38;;
10260;SDS011;5175;42.606;23.388;2022-08-06T03:07:19;6.82;;;6.05;;
10260;SDS011;5175;42.606;23.388;2022-08-06T03:09:48;6.43;;;5.75;;
10260;SDS011;5175;42.606;23.388;2022-08-06T03:12:18;6.13;;;5.63;;
10260;SDS011;5175;42.606;23.388;2022-08-06T03:14:48;5.65;;;5.25;;
10260;SDS011;5175;42.606;23.388;2022-08-06T03:17:18;5.75;;;5.25;;
10260;SDS011;5175;42.606;23.388;2022-08-06T03:19:46;5.45;;;5.05;;
10260;SDS011;5175;42.606;23.388;2022-08-06T03:22:16;6.22;;;5.75;;
10260;SDS011;5175;42.606;23.388;2022-08-06T03:24:45;6.35;;;5.75;;
10260;SDS011;5175;42.606;23.388;2022-08-06T03:27:14;7.20;;;6.03;;
10260;SDS011;5175;42.606;23.388;2022-08-06T03:29:42;6.40;;;5.80;;
10260;SDS011;5175;42.606;23.388;2022-08-06T03:32:12;6.28;;;5.78;;
10260;SDS011;5175;42.606;23.388;2022-08-06T03:34:40;6.43;;;5.80;;
10260;SDS011;5175;42.606;23.388;2022-08-06T03:37:08;6.53;;;5.93;;
10260;SDS011;5175;42.606;23.388;2022-08-06T03:39:36;6.60;;;6.10;;
10260;SDS011;5175;42.606;23.388;2022-08-06T03:42:05;5.88;;;5.47;;
10260;SDS011;5175;42.606;23.388;2022-08-06T03:44:32;7.00;;;6.32;;
10260;SDS011;5175;42.606;23.388;2022-08-06T03:47:00;7.35;;;6.28;;
10260;SDS011;5175;42.606;23.388;2022-08-06T03:49:35;6.60;;;6.00;;
10260;SDS011;5175;42.606;23.388;2022-08-06T03:52:04;7.13;;;6.43;;
10260;SDS011;5175;42.606;23.388;2022-08-06T03:54:43;6.50;;;6.00;;
10260;SDS011;5175;42.606;23.388;2022-08-06T03:57:13;7.13;;;6.53;;
10260;SDS011;5175;42.606;23.388;2022-08-06T03:59:42;6.70;;;6.10;;
10260;SDS011;5175;42.606;23.388;2022-08-06T04:02:11;5.97;;;5.47;;
10260;SDS011;5175;42.606;23.388;2022-08-06T04:04:42;6.45;;;5.88;;
10260;SDS011;5175;42.606;23.388;2022-08-06T04:07:10;7.10;;;6.45;;
10260;SDS011;5175;42.606;23.388;2022-08-06T04:09:40;6.88;;;6.38;;
10260;SDS011;5175;42.606;23.388;2022-08-06T04:12:08;6.65;;;5.97;;
10260;SDS011;5175;42.606;23.388;2022-08-06T04:14:35;6.90;;;6.30;;
10260;SDS011;5175;42.606;23.388;2022-08-06T04:17:03;6.60;;;6.07;;
10260;SDS011;5175;42.606;23.388;2022-08-06T04:19:31;7.32;;;6.47;;
10260;SDS011;5175;42.606;23.388;2022-08-06T04:22:00;6.40;;;5.90;;
10260;SDS011;5175;42.606;23.388;2022-08-06T04:24:27;6.60;;;6.07;;
10260;SDS011;5175;42.606;23.388;2022-08-06T04:26:54;6.05;;;5.53;;
10260;SDS011;5175;42.606;23.388;2022-08-06T04:29:24;6.22;;;5.63;;
10260;SDS011;5175;42.606;23.388;2022-08-06T04:31:51;6.47;;;5.90;;
10260;SDS011;5175;42.606;23.388;2022-08-06T04:34:20;6.40;;;5.80;;
10260;SDS011;5175;42.606;23.388;2022-08-06T04:36:49;7.10;;;5.78;;
10260;SDS011;5175;42.606;23.388;2022-08-06T04:39:18;6.57;;;5.97;;
10260;SDS011;5175;42.606;23.388;2022-08-06T04:41:45;12.43;;;6.00;;
10260;SDS011;5175;42.606;23.388;2022-08-06T04:44:12;7.43;;;6.72;;
10260;SDS011;5175;42.606;23.388;2022-08-06T04:46:39;7.07;;;6.47;;
10260;SDS011;5175;42.606;23.388;2022-08-06T04:49:08;7.00;;;6.30;;
10260;SDS011;5175;42.606;23.388;2022-08-06T04:51:35;6.70;;;6.15;;
10260;SDS011;5175;42.606;23.388;2022-08-06T04:54:04;7.30;;;6.70;;
10260;SDS011;5175;42.606;23.388;2022-08-06T04:56:32;6.60;;;6.00;;
10260;SDS011;5175;42.606;23.388;2022-08-06T04:58:59;7.13;;;6.53;;
10260;SDS011;5175;42.606;23.388;2022-08-06T05:01:26;6.63;;;6.13;;
10260;SDS011;5175;42.606;23.388;2022-08-06T05:03:52;7.22;;;6.63;;
10260;SDS011;5175;42.606;23.388;2022-08-06T05:06:22;7.93;;;7.15;;
10260;SDS011;5175;42.606;23.388;2022-08-06T05:08:53;7.35;;;6.65;;
10260;SDS011;5175;42.606;23.388;2022-08-06T05:11:30;6.95;;;6.35;;
10260;SDS011;5175;42.606;23.388;2022-08-06T05:14:02;7.43;;;6.82;;
10260;SDS011;5175;42.606;23.388;2022-08-06T05:16:34;7.80;;;7.15;;
10260;SDS011;5175;42.606;23.388;2022-08-06T05:19:04;8.07;;;7.38;;
10260;SDS011;5175;42.606;23.388;2022-08-06T05:21:36;8.73;;;8.02;;
10260;SDS011;5175;42.606;23.388;2022-08-06T05:24:05;8.68;;;7.97;;
10260;SDS011;5175;42.606;23.388;2022-08-06T05:26:32;10.13;;;8.57;;
10260;SDS011;5175;42.606;23.388;2022-08-06T05:29:00;8.73;;;8.13;;
10260;SDS011;5175;42.606;23.388;2022-08-06T05:31:29;8.77;;;7.97;;
10260;SDS011;5175;42.606;23.388;2022-08-06T05:33:56;8.35;;;7.65;;
10260;SDS011;5175;42.606;23.388;2022-08-06T05:36:23;8.60;;;7.80;;
10260;SDS011;5175;42.606;23.388;2022-08-06T05:38:50;8.82;;;8.02;;
10260;SDS011;5175;42.606;23.388;2022-08-06T05:41:17;8.43;;;7.68;;
10260;SDS011;5175;42.606;23.388;2022-08-06T05:43:43;8.25;;;7.53;;
10260;SDS011;5175;42.606;23.388;2022-08-06T05:46:12;8.13;;;7.43;;
10260;SDS011;5175;42.606;23.388;2022-08-06T05:48:42;8.15;;;7.45;;
10260;SDS011;5175;42.606;23.388;2022-08-06T05:51:24;8.70;;;7.82;;
10260;SDS011;5175;42.606;23.388;2022-08-06T05:53:59;7.75;;;7.15;;
10260;SDS011;5175;42.606;23.388;2022-08-06T05:56:31;8.30;;;7.53;;
10260;SDS011;5175;42.606;23.388;2022-08-06T05:59:03;7.60;;;6.90;;
10260;SDS011;5175;42.606;23.388;2022-08-06T06:01:34;9.80;;;7.68;;
10260;SDS011;5175;42.606;23.388;2022-08-06T06:04:02;11.40;;;7.43;;
10260;SDS011;5175;42.606;23.388;2022-08-06T06:06:29;9.93;;;7.20;;
10260;SDS011;5175;42.606;23.388;2022-08-06T06:08:56;8.45;;;6.57;;
10260;SDS011;5175;42.606;23.388;2022-08-06T06:11:23;8.75;;;6.95;;
10260;SDS011;5175;42.606;23.388;2022-08-06T06:13:50;7.60;;;6.90;;
10260;SDS011;5175;42.606;23.388;2022-08-06T06:16:20;7.38;;;6.68;;
10260;SDS011;5175;42.606;23.388;2022-08-06T06:18:56;7.88;;;7.18;;
10260;SDS011;5175;42.606;23.388;2022-08-06T06:21:34;7.20;;;6.60;;
10260;SDS011;5175;42.606;23.388;2022-08-06T06:24:07;7.20;;;6.60;;
10260;SDS011;5175;42.606;23.388;2022-08-06T06:26:41;8.18;;;7.07;;
10260;SDS011;5175;42.606;23.388;2022-08-06T06:29:13;7.32;;;6.72;;
10260;SDS011;5175;42.606;23.388;2022-08-06T06:31:52;6.85;;;6.30;;
10260;SDS011;5175;42.606;23.388;2022-08-06T06:34:29;8.88;;;6.78;;
10260;SDS011;5175;42.606;23.388;2022-08-06T06:37:09;8.93;;;6.55;;
10260;SDS011;5175;42.606;23.388;2022-08-06T06:39:44;9.00;;;6.68;;
10260;SDS011;5175;42.606;23.388;2022-08-06T06:42:19;11.07;;;7.60;;
10260;SDS011;5175;42.606;23.388;2022-08-06T06:44:53;8.18;;;7.00;;
10260;SDS011;5175;42.606;23.388;2022-08-06T06:47:30;7.45;;;6.63;;
10260;SDS011;5175;42.606;23.388;2022-08-06T06:50:02;7.07;;;6.40;;
10260;SDS011;5175;42.606;23.388;2022-08-06T06:52:37;6.90;;;6.13;;
10260;SDS011;5175;42.606;23.388;2022-08-06T06:55:12;6.70;;;6.20;;
10260;SDS011;5175;42.606;23.388;2022-08-06T06:57:45;6.65;;;6.10;;
10260;SDS011;5175;42.606;23.388;2022-08-06T07:00:16;6.50;;;5.93;;
10260;SDS011;5175;42.606;23.388;2022-08-06T07:02:44;7.00;;;5.68;;
10260;SDS011;5175;42.606;23.388;2022-08-06T07:05:15;7.00;;;6.32;;
10260;SDS011;5175;42.606;23.388;2022-08-06T07:07:43;8.50;;;6.53;;
10260;SDS011;5175;42.606;23.388;2022-08-06T07:10:12;6.47;;;5.97;;
10260;SDS011;5175;42.606;23.388;2022-08-06T07:12:41;9.65;;;6.00;;
10260;SDS011;5175;42.606;23.388;2022-08-06T07:15:11;6.82;;;6.10;;
10260;SDS011;5175;42.606;23.388;2022-08-06T07:17:40;11.90;;;6.53;;
10260;SDS011;5175;42.606;23.388;2022-08-06T07:20:09;10.80;;;6.32;;
10260;SDS011;5175;42.606;23.388;2022-08-06T07:22:41;6.53;;;5.93;;
10260;SDS011;5175;42.606;23.388;2022-08-06T07:25:12;7.53;;;5.68;;
10260;SDS011;5175;42.606;23.388;2022-08-06T07:27:40;7.75;;;5.45;;
10260;SDS011;5175;42.606;23.388;2022-08-06T07:30:10;6.35;;;5.68;;
10260;SDS011;5175;42.606;23.388;2022-08-06T07:32:38;6.75;;;5.60;;
10260;SDS011;5175;42.606;23.388;2022-08-06T07:35:06;6.55;;;5.68;;
10260;SDS011;5175;42.606;23.388;2022-08-06T07:37:35;9.40;;;6.07;;
10260;SDS011;5175;42.606;23.388;2022-08-06T07:40:06;6.40;;;5.80;;
10260;SDS011;5175;42.606;23.388;2022-08-06T07:42:36;5.97;;;5.47;;
10260;SDS011;5175;42.606;23.388;2022-08-06T07:45:06;6.05;;;5.45;;
10260;SDS011;5175;42.606;23.388;2022-08-06T07:47:35;8.57;;;6.00;;
10260;SDS011;5175;42.606;23.388;2022-08-06T07:50:05;6.05;;;5.45;;
10260;SDS011;5175;42.606;23.388;2022-08-06T07:52:38;6.93;;;6.20;;
10260;SDS011;5175;42.606;23.388;2022-08-06T07:55:07;7.85;;;5.57;;
10260;SDS011;5175;42.606;23.388;2022-08-06T07:57:36;5.80;;;5.30;;
10260;SDS011;5175;42.606;23.388;2022-08-06T08:00:04;7.35;;;5.68;;
10260;SDS011;5175;42.606;23.388;2022-08-06T08:02:32;6.65;;;5.43;;
10260;SDS011;5175;42.606;23.388;2022-08-06T08:05:00;6.55;;;5.68;;
10260;SDS011;5175;42.606;23.388;2022-08-06T08:07:45;9.10;;;5.72;;
10260;SDS011;5175;42.606;23.388;2022-08-06T08:10:13;8.52;;;5.43;;
10260;SDS011;5175;42.606;23.388;2022-08-06T08:12:43;8.27;;;5.50;;
10260;SDS011;5175;42.606;23.388;2022-08-06T08:15:10;9.27;;;5.55;;
10260;SDS011;5175;42.606;23.388;2022-08-06T08:17:37;5.80;;;5.30;;
10260;SDS011;5175;42.606;23.388;2022-08-06T08:20:07;6.13;;;4.82;;
10260;SDS011;5175;42.606;23.388;2022-08-06T08:22:36;9.60;;;5.35;;
10260;SDS011;5175;42.606;23.388;2022-08-06T08:25:05;5.55;;;4.63;;
10260;SDS011;5175;42.606;23.388;2022-08-06T08:27:35;4.70;;;4.30;;
10260;SDS011;5175;42.606;23.388;2022-08-06T08:30:02;4.68;;;4.13;;
10260;SDS011;5175;42.606;23.388;2022-08-06T08:32:30;6.38;;;4.40;;
10260;SDS011;5175;42.606;23.388;2022-08-06T08:34:57;5.13;;;4.47;;
10260;SDS011;5175;42.606;23.388;2022-08-06T08:37:24;8.07;;;4.65;;
10260;SDS011;5175;42.606;23.388;2022-08-06T08:39:51;20.55;;;5.38;;
10260;SDS011;5175;42.606;23.388;2022-08-06T08:42:18;8.18;;;4.30;;
10260;SDS011;5175;42.606;23.388;2022-08-06T08:44:51;4.45;;;3.83;;
10260;SDS011;5175;42.606;23.388;2022-08-06T08:47:20;6.18;;;4.25;;
10260;SDS011;5175;42.606;23.388;2022-08-06T08:49:50;4.78;;;3.58;;
10260;SDS011;5175;42.606;23.388;2022-08-06T08:52:19;5.75;;;4.07;;
10260;SDS011;5175;42.606;23.388;2022-08-06T08:54:58;3.40;;;3.10;;
10260;SDS011;5175;42.606;23.388;2022-08-06T08:57:28;3.20;;;2.90;;
10260;SDS011;5175;42.606;23.388;2022-08-06T08:59:58;3.55;;;3.08;;
10260;SDS011;5175;42.606;23.388;2022-08-06T09:02:26;3.42;;;3.22;;
10260;SDS011;5175;42.606;23.388;2022-08-06T09:04:53;3.50;;;2.95;;
10260;SDS011;5175;42.606;23.388;2022-08-06T09:07:20;3.72;;;3.42;;
10260;SDS011;5175;42.606;23.388;2022-08-06T09:09:47;4.82;;;3.38;;
10260;SDS011;5175;42.606;23.388;2022-08-06T09:12:14;3.40;;;3.10;;
10260;SDS011;5175;42.606;23.388;2022-08-06T09:14:42;3.83;;;3.42;;
10260;SDS011;5175;42.606;23.388;2022-08-06T09:17:12;6.25;;;3.80;;
10260;SDS011;5175;42.606;23.388;2022-08-06T09:19:39;7.55;;;4.32;;
10260;SDS011;5175;42.606;23.388;2022-08-06T09:22:06;5.43;;;3.65;;
10260;SDS011;5175;42.606;23.388;2022-08-06T09:24:32;4.20;;;3.80;;
10260;SDS011;5175;42.606;23.388;2022-08-06T09:27:04;5.30;;;3.80;;
10260;SDS011;5175;42.606;23.388;2022-08-06T09:29:32;4.22;;;3.70;;
10260;SDS011;5175;42.606;23.388;2022-08-06T09:32:00;4.10;;;3.72;;
10260;SDS011;5175;42.606;23.388;2022-08-06T09:34:34;4.18;;;3.78;;
10260;SDS011;5175;42.606;23.388;2022-08-06T09:37:02;4.25;;;3.47;;
10260;SDS011;5175;42.606;23.388;2022-08-06T09:39:30;3.83;;;3.53;;
10260;SDS011;5175;42.606;23.388;2022-08-06T09:42:00;4.10;;;3.60;;
10260;SDS011;5175;42.606;23.388;2022-08-06T09:44:27;3.63;;;3.33;;
10260;SDS011;5175;42.606;23.388;2022-08-06T09:46:54;4.03;;;3.72;;
10260;SDS011;5175;42.606;23.388;2022-08-06T09:49:23;3.85;;;3.17;;
10260;SDS011;5175;42.606;23.388;2022-08-06T09:51:51;9.60;;;4.30;;
10260;SDS011;5175;42.606;23.388;2022-08-06T09:54:37;3.80;;;3.40;;
10260;SDS011;5175;42.606;23.388;2022-08-06T09:57:04;4.90;;;3.70;;
10260;SDS011;5175;42.606;23.388;2022-08-06T09:59:40;4.18;;;3.30;;
10260;SDS011;5175;42.606;23.388;2022-08-06T10:02:11;3.70;;;3.40;;
10260;SDS011;5175;42.606;23.388;2022-08-06T10:04:38;3.78;;;3.33;;
10260;SDS011;5175;42.606;23.388;2022-08-06T10:07:06;4.47;;;3.60;;
10260;SDS011;5175;42.606;23.388;2022-08-06T10:09:33;3.60;;;3.30;;
10260;SDS011;5175;42.606;23.388;2022-08-06T10:12:02;4.90;;;3.40;;
10260;SDS011;5175;42.606;23.388;2022-08-06T10:14:42;4.13;;;3.60;;
10260;SDS011;5175;42.606;23.388;2022-08-06T10:17:10;3.35;;;3.15;;
10260;SDS011;5175;42.606;23.388;2022-08-06T10:19:39;3.65;;;3.20;;
10260;SDS011;5175;42.606;23.388;2022-08-06T10:22:09;8.18;;;3.55;;
10260;SDS011;5175;42.606;23.388;2022-08-06T10:24:39;5.55;;;3.47;;
10260;SDS011;5175;42.606;23.388;2022-08-06T10:27:08;3.75;;;3.33;;
10260;SDS011;5175;42.606;23.388;2022-08-06T10:29:39;3.67;;;3.30;;
10260;SDS011;5175;42.606;23.388;2022-08-06T10:32:07;7.88;;;3.45;;
10260;SDS011;5175;42.606;23.388;2022-08-06T10:34:36;3.30;;;3.10;;
10260;SDS011;5175;42.606;23.388;2022-08-06T10:37:05;4.00;;;3.20;;
10260;SDS011;5175;42.606;23.388;2022-08-06T10:39:35;5.07;;;3.40;;
10260;SDS011;5175;42.606;23.388;2022-08-06T10:42:04;3.40;;;3.10;;
10260;SDS011;5175;42.606;23.388;2022-08-06T10:44:32;3.50;;;3.00;;
10260;SDS011;5175;42.606;23.388;2022-08-06T10:47:00;3.30;;;3.10;;
10260;SDS011;5175;42.606;23.388;2022-08-06T10:49:29;4.07;;;3.10;;
10260;SDS011;5175;42.606;23.388;2022-08-06T10:51:56;3.40;;;3.08;;
10260;SDS011;5175;42.606;23.388;2022-08-06T10:54:23;3.45;;;3.13;;
10260;SDS011;5175;42.606;23.388;2022-08-06T10:56:53;3.65;;;3.22;;
10260;SDS011;5175;42.606;23.388;2022-08-06T10:59:21;3.70;;;3.30;;
10260;SDS011;5175;42.606;23.388;2022-08-06T11:01:51;3.75;;;3.42;;
10260;SDS011;5175;42.606;23.388;2022-08-06T11:04:41;3.65;;;3.28;;
10260;SDS011;5175;42.606;23.388;2022-08-06T11:07:19;3.13;;;2.78;;
10260;SDS011;5175;42.606;23.388;2022-08-06T11:10:13;3.33;;;3.03;;
10260;SDS011;5175;42.606;23.388;2022-08-06T11:12:57;4.10;;;3.13;;
10260;SDS011;5175;42.606;23.388;2022-08-06T11:15:32;4.60;;;3.22;;
10260;SDS011;5175;42.606;23.388;2022-08-06T11:18:02;3.70;;;3.40;;
10260;SDS011;5175;42.606;23.388;2022-08-06T11:20:34;8.02;;;3.53;;
10260;SDS011;5175;42.606;23.388;2022-08-06T11:23:02;4.00;;;3.33;;
10260;SDS011;5175;42.606;23.388;2022-08-06T11:25:37;3.75;;;3.45;;
10260;SDS011;5175;42.606;23.388;2022-08-06T11:28:06;4.45;;;3.30;;
10260;SDS011;5175;42.606;23.388;2022-08-06T11:30:38;4.40;;;3.40;;
10260;SDS011;5175;42.606;23.388;2022-08-06T11:33:06;5.28;;;3.33;;
10260;SDS011;5175;42.606;23.388;2022-08-06T11:35:41;3.50;;;3.20;;
10260;SDS011;5175;42.606;23.388;2022-08-06T11:38:11;3.50;;;3.20;;
10260;SDS011;5175;42.606;23.388;2022-08-06T11:40:58;3.90;;;3.60;;
10260;SDS011;5175;42.606;23.388;2022-08-06T11:46:16;3.95;;;3.20;;
10260;SDS011;5175;42.606;23.388;2022-08-06T11:51:40;3.13;;;2.83;;
10260;SDS011;5175;42.606;23.388;2022-08-06T11:54:09;28.77;;;4.80;;
10260;SDS011;5175;42.606;23.388;2022-08-06T11:59:46;4.15;;;3.28;;
10260;SDS011;5175;42.606;23.388;2022-08-06T12:02:45;3.55;;;3.22;;
10260;SDS011;5175;42.606;23.388;2022-08-06T12:08:19;3.85;;;3.55;;
10260;SDS011;5175;42.606;23.388;2022-08-06T12:13:55;3.95;;;3.40;;
10260;SDS011;5175;42.606;23.388;2022-08-06T12:16:27;4.18;;;3.58;;
10260;SDS011;5175;42.606;23.388;2022-08-06T12:18:59;4.03;;;3.63;;
10260;SDS011;5175;42.606;23.388;2022-08-06T12:21:26;3.90;;;3.60;;
10260;SDS011;5175;42.606;23.388;2022-08-06T12:23:54;4.40;;;3.50;;
10260;SDS011;5175;42.606;23.388;2022-08-06T12:26:21;6.60;;;3.47;;
10260;SDS011;5175;42.606;23.388;2022-08-06T12:28:49;5.38;;;3.17;;
10260;SDS011;5175;42.606;23.388;2022-08-06T12:31:30;3.85;;;3.50;;
10260;SDS011;5175;42.606;23.388;2022-08-06T12:33:58;4.25;;;3.85;;
10260;SDS011;5175;42.606;23.388;2022-08-06T12:36:27;3.63;;;3.10;;
10260;SDS011;5175;42.606;23.388;2022-08-06T12:38:55;4.00;;;3.55;;
10260;SDS011;5175;42.606;23.388;2022-08-06T12:41:30;5.82;;;3.75;;
10260;SDS011;5175;42.606;23.388;2022-08-06T12:43:59;3.95;;;3.65;;
10260;SDS011;5175;42.606;23.388;2022-08-06T12:46:26;8.63;;;3.90;;
10260;SDS011;5175;42.606;23.388;2022-08-06T12:48:54;4.00;;;3.40;;
10260;SDS011;5175;42.606;23.388;2022-08-06T12:51:21;7.10;;;3.60;;
10260;SDS011;5175;42.606;23.388;2022-08-06T12:53:48;11.05;;;4.30;;
10260;SDS011;5175;42.606;23.388;2022-08-06T12:56:17;3.70;;;3.40;;
10260;SDS011;5175;42.606;23.388;2022-08-06T12:58:48;4.05;;;3.25;;
10260;SDS011;5175;42.606;23.388;2022-08-06T13:01:19;5.05;;;3.60;;
10260;SDS011;5175;42.606;23.388;2022-08-06T13:03:48;5.72;;;3.60;;
10260;SDS011;5175;42.606;23.388;2022-08-06T13:06:21;12.77;;;4.22;;
10260;SDS011;5175;42.606;23.388;2022-08-06T13:08:53;8.27;;;3.83;;
10260;SDS011;5175;42.606;23.388;2022-08-06T13:11:28;11.73;;;4.57;;
10260;SDS011;5175;42.606;23.388;2022-08-06T13:13:57;10.73;;;4.07;;
10260;SDS011;5175;42.606;23.388;2022-08-06T13:16:36;10.48;;;4.53;;
10260;SDS011;5175;42.606;23.388;2022-08-06T13:19:05;12.40;;;4.10;;
10260;SDS011;5175;42.606;23.388;2022-08-06T13:21:35;4.32;;;3.40;;
10260;SDS011;5175;42.606;23.388;2022-08-06T13:24:04;3.60;;;3.30;;
10260;SDS011;5175;42.606;23.388;2022-08-06T13:26:33;5.15;;;3.50;;
10260;SDS011;5175;42.606;23.388;2022-08-06T13:29:07;7.50;;;3.50;;
10260;SDS011;5175;42.606;23.388;2022-08-06T13:31:37;11.23;;;3.83;;
10260;SDS011;5175;42.606;23.388;2022-08-06T13:34:06;4.13;;;3.10;;
10260;SDS011;5175;42.606;23.388;2022-08-06T13:36:36;3.63;;;3.22;;
10260;SDS011;5175;42.606;23.388;2022-08-06T13:39:21;3.90;;;3.17;;
10260;SDS011;5175;42.606;23.388;2022-08-06T13:41:59;3.58;;;2.88;;
10260;SDS011;5175;42.606;23.388;2022-08-06T13:44:27;3.40;;;3.10;;
10260;SDS011;5175;42.606;23.388;2022-08-06T13:46:55;3.72;;;3.10;;
10260;SDS011;5175;42.606;23.388;2022-08-06T13:49:22;3.42;;;3.10;;
10260;SDS011;5175;42.606;23.388;2022-08-06T13:51:50;4.63;;;3.00;;
10260;SDS011;5175;42.606;23.388;2022-08-06T13:54:18;4.70;;;3.60;;
10260;SDS011;5175;42.606;23.388;2022-08-06T13:56:46;8.48;;;3.60;;
10260;SDS011;5175;42.606;23.388;2022-08-06T13:59:14;5.30;;;3.30;;
10260;SDS011;5175;42.606;23.388;2022-08-06T14:01:41;4.35;;;3.40;;
10260;SDS011;5175;42.606;23.388;2022-08-06T14:04:08;4.03;;;3.67;;
10260;SDS011;5175;42.606;23.388;2022-08-06T14:06:35;3.80;;;3.50;;
10260;SDS011;5175;42.606;23.388;2022-08-06T14:09:03;4.68;;;3.50;;
10260;SDS011;5175;42.606;23.388;2022-08-06T14:11:30;4.57;;;3.67;;
10260;SDS011;5175;42.606;23.388;2022-08-06T14:13:57;3.90;;;3.47;;
10260;SDS011;5175;42.606;23.388;2022-08-06T14:16:24;4.18;;;3.55;;
10260;SDS011;5175;42.606;23.388;2022-08-06T14:18:50;4.53;;;3.40;;
10260;SDS011;5175;42.606;23.388;2022-08-06T14:21:17;4.03;;;3.25;;
10260;SDS011;5175;42.606;23.388;2022-08-06T14:23:44;4.38;;;3.70;;
10260;SDS011;5175;42.606;23.388;2022-08-06T14:26:12;3.28;;;3.00;;
10260;SDS011;5175;42.606;23.388;2022-08-06T14:28:39;4.00;;;3.25;;
10260;SDS011;5175;42.606;23.388;2022-08-06T14:31:06;3.38;;;3.08;;
10260;SDS011;5175;42.606;23.388;2022-08-06T14:33:33;4.45;;;3.50;;
10260;SDS011;5175;42.606;23.388;2022-08-06T14:36:02;5.40;;;3.60;;
10260;SDS011;5175;42.606;23.388;2022-08-06T14:38:29;3.85;;;3.50;;
10260;SDS011;5175;42.606;23.388;2022-08-06T14:40:56;4.38;;;3.20;;
10260;SDS011;5175;42.606;23.388;2022-08-06T14:43:41;3.88;;;3.58;;
10260;SDS011;5175;42.606;23.388;2022-08-06T14:46:26;3.60;;;3.30;;
10260;SDS011;5175;42.606;23.388;2022-08-06T14:48:53;5.20;;;3.40;;
10260;SDS011;5175;42.606;23.388;2022-08-06T14:51:20;3.70;;;3.35;;
10260;SDS011;5175;42.606;23.388;2022-08-06T14:53:47;7.05;;;3.85;;
10260;SDS011;5175;42.606;23.388;2022-08-06T14:56:13;3.78;;;3.45;;
10260;SDS011;5175;42.606;23.388;2022-08-06T14:58:41;4.20;;;3.80;;
10260;SDS011;5175;42.606;23.388;2022-08-06T15:01:08;4.38;;;3.42;;
10260;SDS011;5175;42.606;23.388;2022-08-06T15:03:35;4.75;;;3.33;;
10260;SDS011;5175;42.606;23.388;2022-08-06T15:06:02;3.95;;;3.55;;
10260;SDS011;5175;42.606;23.388;2022-08-06T15:08:29;3.92;;;3.25;;
10260;SDS011;5175;42.606;23.388;2022-08-06T15:10:56;3.67;;;3.38;;
10260;SDS011;5175;42.606;23.388;2022-08-06T15:13:24;3.88;;;3.28;;
10260;SDS011;5175;42.606;23.388;2022-08-06T15:15:52;3.30;;;3.10;;
10260;SDS011;5175;42.606;23.388;2022-08-06T15:18:18;3.63;;;3.33;;
10260;SDS011;5175;42.606;23.388;2022-08-06T15:20:46;4.97;;;3.60;;